createdAt,value
2019-04-23T00:03:06.501Z,14.00
2019-04-23T00:08:19.595Z,13.95
2019-04-23T00:13:24.750Z,13.87
2019-04-23T00:18:22.277Z,13.80
2019-04-23T00:23:25.577Z,13.73
2019-04-23T00:28:36.041Z,13.64
2019-04-23T00:33:31.420Z,13.59
2019-04-23T00:38:39.958Z,13.53
2019-04-23T00:43:47.509Z,13.42
2019-04-23T00:53:43.751Z,13.24
2019-04-23T00:58:49.505Z,13.15
2019-04-23T01:03:53.436Z,13.08
2019-04-23T01:08:55.099Z,13.01
2019-04-23T01:14:03.965Z,12.92
2019-04-23T01:19:28.019Z,12.85
2019-04-23T01:23:54.443Z,12.77
2019-04-23T01:29:12.613Z,12.70
2019-04-23T01:34:27.595Z,12.62
2019-04-23T01:39:23.133Z,12.54
2019-04-23T01:44:32.756Z,12.48
2019-04-23T01:49:37.584Z,12.40
2019-04-23T01:54:38.596Z,12.36
2019-04-23T01:59:39.212Z,12.29
2019-04-23T02:04:47.799Z,12.24
2019-04-23T02:09:48.534Z,12.15
2019-04-23T02:14:51.775Z,12.08
2019-04-23T02:19:59.529Z,11.98
2019-04-23T02:25:01.933Z,11.90
2019-04-23T02:30:15.646Z,11.85
2019-04-23T02:35:32.696Z,11.78
2019-04-23T02:40:17.039Z,11.73
2019-04-23T02:45:16.941Z,11.63
2019-04-23T02:50:34.640Z,11.53
2019-04-23T02:55:29.259Z,11.46
2019-04-23T03:00:28.843Z,11.38
2019-04-23T03:05:38.102Z,11.28
2019-04-23T03:10:42.002Z,11.25
2019-04-23T03:20:51.668Z,11.09
2019-04-23T03:25:45.449Z,11.03
2019-04-23T03:32:04.574Z,10.95
2019-04-23T03:51:16.369Z,10.71
2019-04-23T03:56:18.889Z,10.67
2019-04-23T04:01:19.772Z,10.63
2019-04-23T04:06:37.515Z,10.59
2019-04-23T04:11:18.186Z,10.53
2019-04-23T04:16:18.245Z,10.47
2019-04-23T04:26:37.778Z,10.39
2019-04-23T04:31:45.705Z,10.35
2019-04-23T04:41:40.728Z,10.33
2019-04-23T04:52:00.278Z,10.41
2019-04-23T04:56:51.314Z,10.36
2019-04-23T05:02:00.466Z,10.41
2019-04-23T05:17:06.703Z,10.61
2019-04-23T05:27:06.068Z,10.79
2019-04-23T05:32:05.786Z,10.94
2019-04-23T05:37:14.686Z,11.06
2019-04-23T05:42:34.013Z,11.18
2019-04-23T05:47:25.425Z,11.34
2019-04-23T05:52:24.232Z,11.47
2019-04-23T05:57:28.486Z,11.63
2019-04-23T06:02:33.841Z,11.75
2019-04-23T06:07:47.871Z,11.86
2019-04-23T06:12:39.946Z,11.98
2019-04-23T06:17:41.124Z,12.18
2019-04-23T06:27:54.966Z,12.47
2019-04-23T06:32:57.166Z,12.66
2019-04-23T06:43:00.971Z,12.94
2019-04-23T06:48:08.997Z,13.07
2019-04-23T06:53:02.016Z,13.36
2019-04-23T06:58:15.689Z,13.66
2019-04-23T07:03:15.055Z,13.81
2019-04-23T07:08:30.641Z,13.91
2019-04-23T07:13:34.375Z,14.01
2019-04-23T07:18:24.327Z,14.17
2019-04-23T07:23:38.047Z,14.27
2019-04-23T07:28:39.242Z,14.49
2019-04-23T07:33:46.875Z,14.76
2019-04-23T07:39:01.267Z,14.91
2019-04-23T07:43:58.934Z,15.18
2019-04-23T07:48:48.042Z,15.32
2019-04-23T07:54:01.751Z,15.44
2019-04-23T07:59:01.174Z,15.48
2019-04-23T08:04:03.092Z,15.64
2019-04-23T08:09:06.278Z,15.77
2019-04-23T08:14:08.373Z,15.99
2019-04-23T08:19:05.703Z,16.10
2019-04-23T08:24:11.992Z,16.21
2019-04-23T08:29:24.062Z,16.49
2019-04-23T08:34:31.492Z,16.80
2019-04-23T08:39:28.340Z,17.01
2019-04-23T08:44:39.582Z,17.33
2019-04-23T08:49:44.221Z,17.68
2019-04-23T08:59:43.520Z,18.06
2019-04-23T09:04:53.868Z,18.20
2019-04-23T09:09:53.654Z,18.59
2019-04-23T09:15:05.637Z,19.07
2019-04-23T09:20:13.245Z,19.26
2019-04-23T09:25:06.610Z,19.63
2019-04-23T09:30:09.395Z,19.96
2019-04-23T09:35:14.421Z,20.27
2019-04-23T09:40:20.413Z,20.49
2019-04-23T09:45:17.223Z,20.48
2019-04-23T09:50:23.443Z,20.53
2019-04-23T10:00:33.012Z,21.05
2019-04-23T10:05:13.990Z,21.26
2019-04-23T10:10:05.503Z,21.60
2019-04-23T10:15:15.440Z,21.86
2019-04-23T10:20:11.085Z,22.33
2019-04-23T10:25:12.973Z,22.52
2019-04-23T10:30:14.727Z,22.83
2019-04-23T10:35:28.933Z,23.32
2019-04-23T10:40:25.953Z,23.31
2019-04-23T10:45:34.938Z,23.45
2019-04-23T10:50:51.174Z,23.78
2019-04-23T11:01:04.565Z,23.79
2019-04-23T11:11:14.701Z,23.72
2019-04-23T11:21:24.074Z,23.81
2019-04-23T11:26:31.760Z,23.98
2019-04-23T11:31:32.028Z,24.21
2019-04-23T11:41:51.692Z,24.15
2019-04-23T11:51:54.026Z,24.61
2019-04-23T12:06:55.872Z,24.88
2019-04-23T12:27:06.151Z,24.99
2019-04-23T12:32:23.379Z,25.22
2019-04-23T12:37:19.643Z,25.31
2019-04-23T12:42:38.349Z,25.53
2019-04-23T12:47:41.860Z,25.55
2019-04-23T12:52:32.532Z,25.75
2019-04-23T12:57:29.775Z,26.03
2019-04-23T13:02:39.780Z,26.19
2019-04-23T13:07:38.078Z,26.14
2019-04-23T13:12:45.959Z,26.05
2019-04-23T13:22:49.424Z,26.19
2019-04-23T13:27:53.995Z,26.25
2019-04-23T13:32:55.898Z,26.30
2019-04-23T13:37:58.999Z,26.46
2019-04-23T13:43:00.939Z,26.72
2019-04-23T13:53:24.142Z,26.91
2019-04-23T14:03:17.599Z,26.99
2019-04-23T14:08:23.224Z,26.93
2019-04-23T14:13:37.079Z,26.49
2019-04-23T14:28:34.338Z,26.61
2019-04-23T14:38:41.478Z,26.18
2019-04-23T14:43:48.727Z,25.94
2019-04-23T14:48:46.521Z,25.80
2019-04-23T15:03:50.087Z,25.70
2019-04-23T15:09:10.932Z,25.62
2019-04-23T15:14:05.341Z,25.59
2019-04-23T15:19:31.640Z,25.62
2019-04-23T15:24:15.686Z,25.62
2019-04-23T15:28:57.032Z,25.77
2019-04-23T15:34:17.748Z,25.81
2019-04-23T15:44:16.114Z,25.81
2019-04-23T15:49:32.254Z,25.81
2019-04-23T15:54:35.715Z,25.92
2019-04-23T15:59:44.106Z,26.10
2019-04-23T16:04:11.275Z,26.13
2019-04-23T16:09:42.229Z,26.19
2019-04-23T16:14:47.915Z,26.07
2019-04-23T16:19:52.923Z,26.30
2019-04-23T16:24:59.862Z,26.29
2019-04-23T16:35:12.263Z,26.30
2019-04-23T16:40:13.879Z,26.59
2019-04-23T16:45:14.932Z,26.70
2019-04-23T16:50:11.452Z,26.63
2019-04-23T17:05:24.908Z,25.72
2019-04-23T17:10:30.981Z,25.44
2019-04-23T17:15:33.310Z,25.21
2019-04-23T17:20:40.794Z,24.84
2019-04-23T17:25:41.806Z,24.56
2019-04-23T17:36:07.108Z,23.97
2019-04-23T17:41:01.620Z,23.72
2019-04-23T17:45:54.397Z,23.52
2019-04-23T17:51:02.849Z,23.02
2019-04-23T17:56:18.442Z,23.02
2019-04-23T18:01:20.136Z,22.56
2019-04-23T18:06:28.299Z,22.56
2019-04-23T18:11:25.552Z,22.36
2019-04-23T18:16:41.688Z,22.12
2019-04-23T18:26:38.657Z,21.76
2019-04-23T18:31:44.603Z,21.54
2019-04-23T18:36:43.843Z,21.36
2019-04-23T18:41:52.387Z,21.12
2019-04-23T18:46:49.058Z,20.91
2019-04-23T18:52:04.734Z,20.76
2019-04-23T18:57:09.315Z,20.56
2019-04-23T19:02:06.642Z,20.39
2019-04-23T19:07:07.187Z,20.24
2019-04-23T19:12:19.741Z,20.20
2019-04-23T19:17:43.684Z,19.85
2019-04-23T19:22:29.228Z,19.67
2019-04-23T19:27:28.614Z,19.51
2019-04-23T19:32:28.343Z,19.35
2019-04-23T19:37:46.768Z,19.14
2019-04-23T19:42:36.549Z,18.98
2019-04-23T19:47:45.887Z,18.81
2019-04-23T19:52:55.006Z,18.63
2019-04-23T19:57:54.942Z,18.48
2019-04-23T20:07:54.941Z,18.28
2019-04-23T20:12:44.590Z,18.25
2019-04-23T20:18:11.621Z,18.15
2019-04-23T20:22:55.615Z,18.06
2019-04-23T20:28:33.683Z,17.99
2019-04-23T20:33:48.546Z,17.94
2019-04-23T20:43:18.980Z,17.75
2019-04-23T20:48:25.324Z,17.65
2019-04-23T20:53:28.358Z,17.56
2019-04-23T20:58:34.402Z,17.50
2019-04-23T21:08:52.132Z,17.36
2019-04-23T21:14:12.465Z,17.29
2019-04-23T21:23:50.419Z,17.12
2019-04-23T21:28:54.314Z,17.06
2019-04-23T21:33:59.280Z,17.02
2019-04-23T21:39:03.268Z,16.94
2019-04-23T21:44:10.156Z,16.84
2019-04-23T21:49:18.087Z,16.76
2019-04-23T21:54:02.060Z,16.69
2019-04-23T21:59:16.687Z,16.62
2019-04-23T22:04:39.987Z,16.55
2019-04-23T22:09:22.550Z,16.45
2019-04-23T22:19:19.772Z,16.28
2019-04-23T22:24:25.117Z,16.22
2019-04-23T22:29:37.753Z,16.12
2019-04-23T22:34:43.283Z,16.05
2019-04-23T22:39:39.978Z,15.98
2019-04-23T22:45:05.328Z,15.88
2019-04-23T22:49:56.963Z,15.77
2019-04-23T22:54:56.832Z,15.70
2019-04-23T23:00:03.933Z,15.62
2019-04-23T23:05:10.305Z,15.53
2019-04-23T23:10:09.025Z,15.46
2019-04-23T23:15:08.047Z,15.42
2019-04-23T23:25:18.892Z,15.29
2019-04-23T23:30:19.604Z,15.23
2019-04-23T23:40:30.278Z,15.08
2019-04-23T23:45:25.705Z,15.11
